Time;durP1;ratioP1;P1;durP2;ratioP2;P2;SDS_P1;SDS_P2;PMS_P1;PMS_P2;Temp;Humidity;BMP_temperature;BMP_pressure;BME280_temperature;BME280_humidity;BME280_pressure;Samples;Min_cycle;Max_cycle;Signal;HPM_P1;HPM_P2
2023/02/07 00:00:05;;;;;;;10.50;7.00;;;;;;;;;;5008626;28;20185;-73
2023/02/07 00:02:30;;;;;;;11.70;7.03;;;;;;;;;;5010437;28;20959;-73
2023/02/07 00:04:55;;;;;;;10.50;7.50;;;;;;;;;;5007607;28;20424;-73
2023/02/07 00:07:21;;;;;;;11.40;8.27;;;;;;;;;;5012591;28;20205;-73
2023/02/07 00:09:46;;;;;;;9.53;7.33;;;;;;;;;;5010877;28;20185;-73
2023/02/07 00:12:11;;;;;;;12.40;7.27;;;;;;;;;;4993043;28;20223;-73
2023/02/07 00:14:36;;;;;;;15.67;8.83;;;;;;;;;;5009432;28;20196;-73
2023/02/07 00:17:02;;;;;;;12.50;8.20;;;;;;;;;;4993470;28;20201;-73
2023/02/07 00:19:27;;;;;;;11.67;7.77;;;;;;;;;;5007139;28;20556;-73
2023/02/07 00:21:52;;;;;;;13.00;8.63;;;;;;;;;;4993100;28;20192;-73
2023/02/07 00:24:17;;;;;;;12.93;8.03;;;;;;;;;;5010908;28;20603;-73
2023/02/07 00:26:46;;;;;;;9.90;8.10;;;;;;;;;;5009129;28;20251;-73
2023/02/07 00:29:11;;;;;;;10.87;7.70;;;;;;;;;;4991640;28;20177;-73
2023/02/07 00:31:36;;;;;;;16.37;8.97;;;;;;;;;;4992944;28;20798;-73
2023/02/07 00:34:03;;;;;;;18.03;9.47;;;;;;;;;;4993269;28;20209;-73
2023/02/07 00:36:30;;;;;;;13.37;8.60;;;;;;;;;;5010670;28;20219;-73
2023/02/07 00:38:59;;;;;;;16.27;9.53;;;;;;;;;;4992339;28;20917;-73
2023/02/07 00:41:25;;;;;;;13.20;9.07;;;;;;;;;;5010254;28;20490;-73
2023/02/07 00:43:50;;;;;;;15.93;9.23;;;;;;;;;;4992458;28;20503;-73
2023/02/07 00:46:15;;;;;;;14.97;9.60;;;;;;;;;;5010176;28;20201;-73
2023/02/07 00:48:41;;;;;;;18.40;9.53;;;;;;;;;;5009904;28;20320;-73
2023/02/07 00:51:07;;;;;;;16.33;9.60;;;;;;;;;;4991581;28;20259;-73
2023/02/07 00:53:33;;;;;;;20.23;9.97;;;;;;;;;;4991925;28;20196;-73
2023/02/07 00:55:58;;;;;;;12.90;10.17;;;;;;;;;;4992531;28;20278;-73
2023/02/07 00:58:24;;;;;;;20.37;10.03;;;;;;;;;;5009980;28;20507;-73
2023/02/07 01:00:49;;;;;;;16.17;9.70;;;;;;;;;;4992491;28;20260;-73
2023/02/07 01:03:15;;;;;;;19.90;10.97;;;;;;;;;;5010859;28;20177;-73
2023/02/07 01:05:40;;;;;;;20.60;10.87;;;;;;;;;;5010247;28;20560;-73
2023/02/07 01:08:06;;;;;;;18.93;10.80;;;;;;;;;;4992102;28;20655;-73
2023/02/07 01:10:31;;;;;;;14.70;10.97;;;;;;;;;;5009998;28;20184;-73
2023/02/07 01:12:56;;;;;;;20.37;10.20;;;;;;;;;;4992689;28;20191;-73
2023/02/07 01:15:22;;;;;;;19.43;9.50;;;;;;;;;;5009878;28;20209;-73
2023/02/07 01:17:47;;;;;;;18.83;10.80;;;;;;;;;;4992722;28;20668;-73
2023/02/07 01:20:12;;;;;;;16.90;9.53;;;;;;;;;;5009135;28;20181;-73
2023/02/07 01:22:38;;;;;;;17.37;11.03;;;;;;;;;;4992394;28;20177;-73
2023/02/07 01:25:04;;;;;;;17.07;10.73;;;;;;;;;;5009871;28;20267;-73
2023/02/07 01:27:29;;;;;;;12.70;9.53;;;;;;;;;;5009106;28;20193;-73
2023/02/07 01:29:54;;;;;;;13.67;9.23;;;;;;;;;;5010031;28;20412;-73
2023/02/07 01:32:20;;;;;;;14.60;9.40;;;;;;;;;;5009239;28;20548;-73
2023/02/07 01:34:45;;;;;;;15.50;9.70;;;;;;;;;;5007897;28;20441;-73
2023/02/07 01:37:10;;;;;;;13.40;10.27;;;;;;;;;;5009768;28;20204;-73
2023/02/07 01:39:36;;;;;;;17.10;10.40;;;;;;;;;;5009106;28;20188;-73
2023/02/07 01:42:01;;;;;;;20.00;10.93;;;;;;;;;;5008280;28;20180;-73
2023/02/07 01:44:26;;;;;;;13.37;9.43;;;;;;;;;;5009727;28;20227;-73
2023/02/07 01:46:53;;;;;;;15.73;9.60;;;;;;;;;;5008392;28;20640;-73
2023/02/07 01:49:20;;;;;;;16.47;9.83;;;;;;;;;;4991093;28;20189;-73
2023/02/07 01:51:51;;;;;;;16.30;10.87;;;;;;;;;;5008367;28;20431;-73
2023/02/07 01:54:17;;;;;;;13.10;9.03;;;;;;;;;;5012141;28;20420;-73
2023/02/07 01:56:45;;;;;;;12.27;8.80;;;;;;;;;;4995288;28;20487;-73
2023/02/07 01:59:11;;;;;;;12.53;8.70;;;;;;;;;;5014020;28;20417;-74
2023/02/07 02:01:39;;;;;;;14.40;9.27;;;;;;;;;;5015672;28;20511;-73
2023/02/07 02:04:04;;;;;;;16.67;9.03;;;;;;;;;;5011016;28;20474;-72
2023/02/07 02:06:34;;;;;;;12.57;9.33;;;;;;;;;;5012780;28;20447;-73
2023/02/07 02:09:00;;;;;;;14.17;9.50;;;;;;;;;;5011158;28;20212;-73
2023/02/07 02:11:35;;;;;;;19.00;10.20;;;;;;;;;;5013135;28;20412;-73
2023/02/07 02:14:00;;;;;;;13.67;9.67;;;;;;;;;;5013576;28;20493;-73
2023/02/07 02:16:41;;;;;;;17.13;10.50;;;;;;;;;;4992738;28;20566;-73
2023/02/07 02:19:26;;;;;;;18.80;10.27;;;;;;;;;;5012487;28;20181;-73
2023/02/07 02:22:12;;;;;;;15.03;10.00;;;;;;;;;;4972391;28;20427;-73
2023/02/07 02:24:56;;;;;;;15.40;9.90;;;;;;;;;;5000875;28;20474;-73
2023/02/07 02:27:39;;;;;;;14.10;9.60;;;;;;;;;;5012554;28;20467;-73
2023/02/07 02:30:17;;;;;;;12.63;9.43;;;;;;;;;;5013223;28;20854;-73
2023/02/07 02:32:55;;;;;;;14.57;9.60;;;;;;;;;;5012826;28;20419;-73
2023/02/07 02:35:23;;;;;;;14.40;10.00;;;;;;;;;;5011704;28;20496;-72
2023/02/07 02:37:58;;;;;;;15.20;10.00;;;;;;;;;;5012909;28;20908;-73
2023/02/07 02:40:30;;;;;;;12.00;8.60;;;;;;;;;;5012630;28;20445;-73
2023/02/07 02:43:09;;;;;;;12.87;8.63;;;;;;;;;;4995500;28;20430;-72
2023/02/07 02:45:39;;;;;;;14.07;8.90;;;;;;;;;;5010996;28;20427;-73
2023/02/07 02:48:06;;;;;;;14.93;9.17;;;;;;;;;;5011227;28;20470;-73
2023/02/07 02:50:33;;;;;;;16.13;9.07;;;;;;;;;;5010021;28;20423;-73
2023/02/07 02:52:58;;;;;;;12.53;8.40;;;;;;;;;;4994434;28;21057;-72
2023/02/07 02:55:27;;;;;;;13.87;10.20;;;;;;;;;;5011133;28;20455;-73
2023/02/07 02:57:59;;;;;;;14.80;9.80;;;;;;;;;;5012398;28;20197;-72
2023/02/07 03:00:31;;;;;;;12.63;9.27;;;;;;;;;;5010691;28;20412;-72
2023/02/07 03:03:28;;;;;;;16.20;8.60;;;;;;;;;;5011766;28;20408;-72
2023/02/07 03:06:12;;;;;;;14.10;9.03;;;;;;;;;;4988881;28;20427;-72
2023/02/07 03:08:46;;;;;;;11.27;8.87;;;;;;;;;;5011259;28;20422;-72
2023/02/07 03:11:13;;;;;;;12.60;9.37;;;;;;;;;;5012339;28;20459;-72
2023/02/07 03:13:54;;;;;;;16.33;8.90;;;;;;;;;;4994625;28;20462;-72
2023/02/07 03:16:23;;;;;;;13.70;9.40;;;;;;;;;;5011141;28;20884;-72
2023/02/07 03:18:48;;;;;;;12.40;9.17;;;;;;;;;;4993683;28;20504;-72
2023/02/07 03:21:20;;;;;;;13.20;9.10;;;;;;;;;;4994201;28;20423;-72
2023/02/07 03:23:46;;;;;;;10.43;8.37;;;;;;;;;;4994254;28;20264;-72
2023/02/07 03:26:14;;;;;;;13.67;9.40;;;;;;;;;;5011637;28;20558;-72
2023/02/07 03:28:40;;;;;;;14.53;10.07;;;;;;;;;;5010240;28;20420;-72
2023/02/07 03:31:07;;;;;;;15.03;10.03;;;;;;;;;;4994400;28;20424;-72
2023/02/07 03:33:33;;;;;;;16.53;10.40;;;;;;;;;;5011942;28;20424;-72
2023/02/07 03:36:11;;;;;;;17.00;9.30;;;;;;;;;;5011544;28;20451;-72
2023/02/07 03:38:37;;;;;;;17.80;9.40;;;;;;;;;;5011059;28;20223;-72
2023/02/07 03:41:07;;;;;;;11.83;9.40;;;;;;;;;;5011116;28;20411;-72
2023/02/07 03:43:34;;;;;;;14.23;10.23;;;;;;;;;;5011529;28;20177;-72
2023/02/07 03:46:01;;;;;;;12.67;9.00;;;;;;;;;;5011378;28;20412;-72
2023/02/07 03:48:26;;;;;;;12.00;8.83;;;;;;;;;;5008981;28;20913;-72
2023/02/07 03:50:52;;;;;;;12.83;9.40;;;;;;;;;;5010706;28;20428;-72
2023/02/07 03:53:20;;;;;;;11.73;8.90;;;;;;;;;;5014727;28;20251;-72
2023/02/07 03:55:45;;;;;;;16.70;8.90;;;;;;;;;;5009013;28;20209;-72
2023/02/07 03:58:10;;;;;;;10.37;8.33;;;;;;;;;;5011001;28;20447;-72
2023/02/07 04:00:36;;;;;;;13.07;8.70;;;;;;;;;;5011393;28;20752;-71
2023/02/07 04:03:01;;;;;;;14.03;10.00;;;;;;;;;;5010871;28;20690;-72
2023/02/07 04:05:27;;;;;;;11.83;8.80;;;;;;;;;;5009202;28;20652;-72
2023/02/07 04:07:52;;;;;;;12.33;9.13;;;;;;;;;;5010431;28;20447;-72
2023/02/07 04:10:18;;;;;;;13.70;8.73;;;;;;;;;;5009662;28;20181;-72
2023/02/07 04:12:43;;;;;;;10.70;8.50;;;;;;;;;;4992683;28;20287;-72
2023/02/07 04:15:08;;;;;;;11.47;8.80;;;;;;;;;;4993295;28;20572;-72
2023/02/07 04:17:34;;;;;;;12.60;8.50;;;;;;;;;;5009721;28;20201;-72
2023/02/07 04:20:02;;;;;;;12.30;9.17;;;;;;;;;;5010955;28;20177;-72
2023/02/07 04:22:28;;;;;;;11.47;8.20;;;;;;;;;;5010326;28;20204;-73
2023/02/07 04:24:53;;;;;;;11.27;8.67;;;;;;;;;;5010856;28;20903;-72
2023/02/07 04:27:18;;;;;;;14.80;8.80;;;;;;;;;;5009041;28;20221;-72
2023/02/07 04:29:43;;;;;;;13.57;9.43;;;;;;;;;;5010028;28;20677;-73
2023/02/07 04:32:09;;;;;;;13.20;9.23;;;;;;;;;;5010456;28;20177;-72
2023/02/07 04:34:34;;;;;;;10.30;8.30;;;;;;;;;;4991837;28;20278;-72
2023/02/07 04:36:59;;;;;;;12.63;9.00;;;;;;;;;;5010571;28;20251;-72
2023/02/07 04:39:25;;;;;;;14.37;9.60;;;;;;;;;;5009684;28;20213;-72
2023/02/07 04:41:50;;;;;;;12.13;8.17;;;;;;;;;;5009562;28;20188;-72
2023/02/07 04:44:15;;;;;;;13.30;9.07;;;;;;;;;;5009913;28;20600;-72
2023/02/07 04:46:40;;;;;;;16.33;9.73;;;;;;;;;;5009334;28;20303;-72
2023/02/07 04:49:08;;;;;;;12.30;9.70;;;;;;;;;;5009788;28;20637;-72
2023/02/07 04:51:33;;;;;;;12.30;8.67;;;;;;;;;;4992745;28;20196;-72
2023/02/07 04:53:59;;;;;;;12.40;9.37;;;;;;;;;;5009813;28;20504;-73
2023/02/07 04:56:24;;;;;;;15.40;8.90;;;;;;;;;;5010176;28;20580;-73
2023/02/07 04:58:49;;;;;;;11.33;9.10;;;;;;;;;;5010196;28;20204;-73
2023/02/07 05:01:15;;;;;;;15.77;10.13;;;;;;;;;;5010518;28;20184;-72
2023/02/07 05:03:40;;;;;;;13.10;9.03;;;;;;;;;;4990699;28;20218;-72
2023/02/07 05:06:05;;;;;;;13.00;9.20;;;;;;;;;;5009695;28;20678;-72
2023/02/07 05:08:31;;;;;;;17.33;9.90;;;;;;;;;;5009488;28;20228;-72
2023/02/07 05:10:56;;;;;;;12.77;8.70;;;;;;;;;;4990577;28;20653;-72
2023/02/07 05:13:22;;;;;;;13.00;9.20;;;;;;;;;;5008545;28;20300;-72
2023/02/07 05:15:47;;;;;;;12.27;8.43;;;;;;;;;;5009870;28;20193;-72
2023/02/07 05:18:13;;;;;;;13.83;8.67;;;;;;;;;;4990294;28;20383;-72
2023/02/07 05:20:38;;;;;;;9.77;8.20;;;;;;;;;;5009663;28;20291;-72
2023/02/07 05:23:03;;;;;;;15.00;9.20;;;;;;;;;;5010290;28;20203;-72
2023/02/07 05:25:28;;;;;;;10.80;8.77;;;;;;;;;;5008633;28;20255;-72
2023/02/07 05:27:54;;;;;;;11.50;8.30;;;;;;;;;;5010697;28;20232;-72
2023/02/07 05:30:19;;;;;;;14.70;9.47;;;;;;;;;;4998130;28;20649;-72
2023/02/07 05:33:02;;;;;;;11.20;8.50;;;;;;;;;;5016064;28;20177;-72
2023/02/07 05:35:38;;;;;;;9.50;8.50;;;;;;;;;;5015072;28;20283;-72
2023/02/07 05:38:06;;;;;;;12.30;9.47;;;;;;;;;;5015700;28;20435;-72
2023/02/07 05:40:31;;;;;;;13.03;9.20;;;;;;;;;;4998128;28;20477;-71
2023/02/07 05:42:57;;;;;;;11.10;9.03;;;;;;;;;;5016416;28;20407;-71
2023/02/07 05:45:22;;;;;;;12.60;9.60;;;;;;;;;;5016598;28;20258;-72
2023/02/07 05:47:47;;;;;;;15.47;9.30;;;;;;;;;;5015661;28;20580;-71
2023/02/07 05:50:13;;;;;;;11.77;9.57;;;;;;;;;;5016340;28;20181;-72
2023/02/07 05:52:38;;;;;;;12.73;9.13;;;;;;;;;;4999301;28;20239;-72
2023/02/07 05:55:04;;;;;;;13.87;9.50;;;;;;;;;;5015984;28;20201;-71
2023/02/07 05:57:30;;;;;;;12.47;9.00;;;;;;;;;;5016316;28;20255;-71
2023/02/07 05:59:55;;;;;;;12.00;9.50;;;;;;;;;;4998297;28;20187;-71
2023/02/07 06:02:20;;;;;;;16.10;10.57;;;;;;;;;;5016081;28;20864;-71
2023/02/07 06:04:46;;;;;;;13.63;11.20;;;;;;;;;;5015748;28;20693;-71
2023/02/07 06:07:11;;;;;;;10.97;9.20;;;;;;;;;;4999101;28;20596;-71
2023/02/07 06:09:36;;;;;;;15.77;11.37;;;;;;;;;;5016214;28;20220;-71
2023/02/07 06:12:01;;;;;;;13.30;10.13;;;;;;;;;;5015562;28;20291;-71
2023/02/07 06:14:27;;;;;;;14.60;10.77;;;;;;;;;;5015242;28;20204;-71
2023/02/07 06:16:52;;;;;;;14.67;10.77;;;;;;;;;;5015971;28;20193;-71
2023/02/07 06:19:17;;;;;;;17.63;11.60;;;;;;;;;;5016348;28;20212;-71
2023/02/07 06:21:42;;;;;;;14.90;10.63;;;;;;;;;;5015561;28;20640;-71
2023/02/07 06:24:10;;;;;;;12.20;10.00;;;;;;;;;;5016667;28;20172;-71
2023/02/07 06:26:36;;;;;;;17.03;11.47;;;;;;;;;;5015671;28;20323;-71
2023/02/07 06:29:01;;;;;;;14.80;10.83;;;;;;;;;;4998493;28;20447;-71
2023/02/07 06:31:26;;;;;;;17.67;12.90;;;;;;;;;;5016359;28;20243;-71
2023/02/07 06:33:51;;;;;;;15.33;10.83;;;;;;;;;;5015410;28;20649;-71
2023/02/07 06:36:17;;;;;;;13.20;10.40;;;;;;;;;;5014383;28;20259;-70
2023/02/07 06:38:42;;;;;;;11.70;9.10;;;;;;;;;;5015846;28;20183;-71
2023/02/07 06:41:10;;;;;;;14.63;9.60;;;;;;;;;;5012991;28;20618;-71
2023/02/07 06:43:38;;;;;;;16.10;10.90;;;;;;;;;;4995699;28;20181;-71
2023/02/07 06:46:04;;;;;;;14.83;10.07;;;;;;;;;;5012824;28;20880;-71
2023/02/07 06:48:29;;;;;;;14.70;10.67;;;;;;;;;;5012695;28;20423;-71
2023/02/07 06:50:54;;;;;;;14.53;10.60;;;;;;;;;;4993990;28;20185;-71
2023/02/07 06:53:20;;;;;;;13.80;10.10;;;;;;;;;;4995653;28;20188;-71
2023/02/07 06:55:45;;;;;;;12.00;10.13;;;;;;;;;;5012234;28;20196;-71
2023/02/07 06:58:10;;;;;;;15.00;11.30;;;;;;;;;;4993465;28;20251;-71
2023/02/07 07:00:36;;;;;;;14.87;10.33;;;;;;;;;;5011666;28;20513;-71
2023/02/07 07:03:01;;;;;;;17.07;10.80;;;;;;;;;;4993563;28;20239;-71
2023/02/07 07:05:27;;;;;;;12.80;10.17;;;;;;;;;;5010620;28;20188;-71
2023/02/07 07:07:52;;;;;;;11.60;9.13;;;;;;;;;;5011289;28;20267;-71
2023/02/07 07:10:17;;;;;;;12.10;9.87;;;;;;;;;;5008520;28;20187;-71
2023/02/07 07:12:43;;;;;;;13.73;10.67;;;;;;;;;;5010008;28;20181;-71
2023/02/07 07:15:08;;;;;;;17.07;11.77;;;;;;;;;;5011888;28;20250;-71
2023/02/07 07:17:37;;;;;;;14.07;10.30;;;;;;;;;;5010562;28;20197;-71
2023/02/07 07:20:02;;;;;;;14.50;10.63;;;;;;;;;;5011081;28;20256;-71
2023/02/07 07:22:27;;;;;;;16.70;12.17;;;;;;;;;;5010767;28;20515;-71
2023/02/07 07:24:52;;;;;;;16.10;12.43;;;;;;;;;;5010420;28;20200;-71
2023/02/07 07:27:18;;;;;;;13.20;10.90;;;;;;;;;;5011175;28;20678;-71
2023/02/07 07:29:43;;;;;;;14.50;10.80;;;;;;;;;;5011047;28;20203;-71
2023/02/07 07:32:10;;;;;;;16.50;11.20;;;;;;;;;;5010667;28;20185;-71
2023/02/07 07:34:36;;;;;;;14.77;11.03;;;;;;;;;;4993555;28;20189;-71
2023/02/07 07:37:01;;;;;;;14.00;10.40;;;;;;;;;;4993522;28;20428;-71
2023/02/07 07:39:26;;;;;;;16.73;12.60;;;;;;;;;;5012547;28;20790;-71
2023/02/07 07:41:52;;;;;;;13.60;11.20;;;;;;;;;;5012682;28;20181;-71
2023/02/07 07:44:17;;;;;;;16.80;12.43;;;;;;;;;;5012471;28;20177;-71
2023/02/07 07:46:42;;;;;;;16.50;11.30;;;;;;;;;;5012427;28;20220;-71
2023/02/07 07:49:07;;;;;;;17.80;12.47;;;;;;;;;;4994269;28;20204;-71
2023/02/07 07:51:33;;;;;;;13.37;11.77;;;;;;;;;;4993878;28;20217;-71
2023/02/07 07:54:01;;;;;;;13.30;11.53;;;;;;;;;;4995041;28;20185;-71
2023/02/07 07:56:30;;;;;;;15.60;11.57;;;;;;;;;;4995185;28;20875;-71
2023/02/07 07:58:55;;;;;;;13.83;11.17;;;;;;;;;;4994724;28;20800;-71
2023/02/07 08:01:21;;;;;;;15.33;11.90;;;;;;;;;;5012429;28;20750;-71
2023/02/07 08:03:46;;;;;;;13.07;10.93;;;;;;;;;;5012083;28;20256;-71
2023/02/07 08:06:11;;;;;;;17.47;10.97;;;;;;;;;;5012113;28;20603;-71
2023/02/07 08:08:37;;;;;;;15.90;11.33;;;;;;;;;;5011790;28;20177;-71
2023/02/07 08:11:03;;;;;;;17.77;12.00;;;;;;;;;;5012076;28;20180;-71
2023/02/07 08:13:28;;;;;;;14.27;11.20;;;;;;;;;;4994782;28;20185;-71
2023/02/07 08:15:56;;;;;;;15.47;12.43;;;;;;;;;;5011287;28;20196;-71
2023/02/07 08:18:21;;;;;;;16.60;11.63;;;;;;;;;;4994426;28;20613;-71
2023/02/07 08:20:50;;;;;;;18.93;11.50;;;;;;;;;;5011797;28;20440;-71
2023/02/07 08:23:15;;;;;;;15.10;11.83;;;;;;;;;;5011965;28;20173;-71
2023/02/07 08:25:41;;;;;;;17.60;12.17;;;;;;;;;;4994894;28;20423;-71
2023/02/07 08:28:07;;;;;;;16.77;11.97;;;;;;;;;;5011816;28;20603;-71
2023/02/07 08:30:32;;;;;;;16.60;12.47;;;;;;;;;;5011845;28;20271;-71
2023/02/07 08:32:57;;;;;;;14.73;11.50;;;;;;;;;;5012230;28;20235;-71
2023/02/07 08:35:23;;;;;;;15.73;11.90;;;;;;;;;;5012092;28;20744;-71
2023/02/07 08:37:51;;;;;;;15.50;10.87;;;;;;;;;;5011609;28;20197;-71
2023/02/07 08:40:17;;;;;;;16.97;12.13;;;;;;;;;;5011858;28;20259;-71
2023/02/07 08:42:43;;;;;;;16.13;11.63;;;;;;;;;;5011935;28;20844;-71
2023/02/07 08:45:08;;;;;;;16.43;12.60;;;;;;;;;;5010667;28;20544;-71
2023/02/07 08:47:34;;;;;;;15.97;12.17;;;;;;;;;;5010507;28;20311;-71
2023/02/07 08:49:59;;;;;;;14.33;12.20;;;;;;;;;;4993110;28;20192;-71
2023/02/07 08:52:26;;;;;;;15.83;12.80;;;;;;;;;;5010927;28;20184;-71
2023/02/07 08:54:52;;;;;;;13.80;11.00;;;;;;;;;;5012364;28;20227;-72
2023/02/07 08:57:21;;;;;;;13.67;11.37;;;;;;;;;;5012744;28;20468;-71
2023/02/07 08:59:47;;;;;;;14.47;11.50;;;;;;;;;;4991717;28;20634;-71
2023/02/07 09:02:12;;;;;;;15.07;11.47;;;;;;;;;;5010285;28;20416;-71
2023/02/07 09:04:40;;;;;;;15.73;10.27;;;;;;;;;;5008666;28;20622;-71
2023/02/07 09:07:05;;;;;;;14.90;11.47;;;;;;;;;;4991734;28;20220;-71
2023/02/07 09:09:33;;;;;;;13.50;9.90;;;;;;;;;;5009928;28;20455;-72
2023/02/07 09:11:58;;;;;;;13.63;9.97;;;;;;;;;;5010361;28;20412;-71
2023/02/07 09:14:24;;;;;;;13.10;10.40;;;;;;;;;;5011086;28;20408;-72
2023/02/07 09:16:49;;;;;;;14.97;10.00;;;;;;;;;;5009107;28;20207;-72
2023/02/07 09:19:14;;;;;;;10.63;9.50;;;;;;;;;;5008587;28;20707;-72
2023/02/07 09:21:39;;;;;;;11.50;9.27;;;;;;;;;;5010561;28;20173;-72
2023/02/07 09:24:05;;;;;;;11.57;7.90;;;;;;;;;;5009994;28;20252;-72
2023/02/07 09:26:33;;;;;;;11.87;8.47;;;;;;;;;;4992035;28;20213;-72
2023/02/07 09:28:58;;;;;;;11.30;8.80;;;;;;;;;;5009187;28;20677;-72
2023/02/07 09:31:24;;;;;;;11.83;8.90;;;;;;;;;;5010386;28;21014;-72
2023/02/07 09:33:49;;;;;;;17.07;9.63;;;;;;;;;;4992202;28;20198;-73
2023/02/07 09:36:17;;;;;;;14.00;8.83;;;;;;;;;;5009788;28;20224;-73
2023/02/07 09:38:43;;;;;;;10.43;8.10;;;;;;;;;;4992553;28;20239;-73
2023/02/07 09:41:20;;;;;;;9.83;8.20;;;;;;;;;;4991954;28;20428;-73
2023/02/07 09:43:54;;;;;;;12.50;8.90;;;;;;;;;;5009961;28;20173;-73
2023/02/07 09:46:23;;;;;;;11.83;8.97;;;;;;;;;;5008586;28;20446;-73
2023/02/07 09:48:51;;;;;;;13.47;9.37;;;;;;;;;;5008884;28;20511;-73
2023/02/07 09:51:17;;;;;;;11.90;8.70;;;;;;;;;;5009148;28;20498;-73
2023/02/07 09:53:45;;;;;;;9.40;7.90;;;;;;;;;;5008851;28;20923;-73
2023/02/07 09:56:10;;;;;;;8.77;7.80;;;;;;;;;;5010032;28;20455;-74
2023/02/07 09:58:42;;;;;;;9.53;7.47;;;;;;;;;;5009637;28;20420;-74
2023/02/07 10:01:13;;;;;;;9.30;7.10;;;;;;;;;;5010008;28;20177;-73
2023/02/07 10:03:42;;;;;;;8.70;7.80;;;;;;;;;;5008789;28;20400;-74
2023/02/07 10:06:17;;;;;;;8.63;7.57;;;;;;;;;;5008044;28;20909;-74
2023/02/07 10:08:44;;;;;;;10.40;8.33;;;;;;;;;;4990803;28;20454;-74
2023/02/07 10:11:33;;;;;;;9.60;7.73;;;;;;;;;;5009386;28;20510;-74
2023/02/07 10:14:27;;;;;;;14.13;8.80;;;;;;;;;;5007525;28;20448;-74
2023/02/07 10:17:11;;;;;;;9.60;8.03;;;;;;;;;;4977590;28;20471;-74
2023/02/07 10:19:39;;;;;;;8.60;7.73;;;;;;;;;;4995095;28;20427;-74
2023/02/07 10:22:07;;;;;;;10.80;8.17;;;;;;;;;;5013300;28;20490;-74
2023/02/07 10:24:38;;;;;;;8.93;7.90;;;;;;;;;;5012964;28;20412;-73
2023/02/07 10:27:11;;;;;;;11.23;8.23;;;;;;;;;;5012488;28;20428;-74
2023/02/07 10:29:55;;;;;;;9.77;7.60;;;;;;;;;;4994130;28;20416;-74
2023/02/07 10:32:23;;;;;;;9.57;7.53;;;;;;;;;;4994906;28;20515;-74
2023/02/07 10:34:49;;;;;;;8.13;6.80;;;;;;;;;;4995270;28;20495;-74
2023/02/07 10:37:25;;;;;;;10.00;7.40;;;;;;;;;;4995011;28;20952;-74
2023/02/07 10:40:02;;;;;;;16.23;8.17;;;;;;;;;;5012026;28;20974;-73
2023/02/07 10:42:29;;;;;;;10.07;7.77;;;;;;;;;;5012502;28;20416;-74
2023/02/07 10:44:54;;;;;;;11.10;7.30;;;;;;;;;;4992532;28;20812;-74
2023/02/07 10:47:19;;;;;;;8.97;7.57;;;;;;;;;;5012152;28;20534;-74
2023/02/07 10:49:49;;;;;;;9.90;7.77;;;;;;;;;;4998675;28;20205;-75
2023/02/07 10:52:14;;;;;;;9.17;7.00;;;;;;;;;;5013234;28;20275;-74
2023/02/07 10:54:54;;;;;;;7.90;6.53;;;;;;;;;;5013197;28;20424;-74
2023/02/07 10:57:20;;;;;;;9.30;6.97;;;;;;;;;;5010700;28;20228;-74
2023/02/07 10:59:45;;;;;;;10.13;7.30;;;;;;;;;;4993720;28;20412;-74
2023/02/07 11:02:26;;;;;;;8.80;6.50;;;;;;;;;;5011048;28;20465;-74
2023/02/07 11:04:51;;;;;;;7.13;6.10;;;;;;;;;;5010888;28;20200;-74
2023/02/07 11:07:16;;;;;;;9.20;7.30;;;;;;;;;;4992297;28;20460;-74
2023/02/07 11:09:42;;;;;;;9.60;7.27;;;;;;;;;;5012408;28;20260;-73
2023/02/07 11:12:27;;;;;;;8.53;6.30;;;;;;;;;;4994651;28;20590;-74
2023/02/07 11:15:03;;;;;;;9.53;7.30;;;;;;;;;;5010773;28;20724;-73
2023/02/07 11:17:30;;;;;;;13.80;7.77;;;;;;;;;;4993614;28;20416;-74
2023/02/07 11:19:55;;;;;;;7.40;6.27;;;;;;;;;;4994635;28;20416;-73
2023/02/07 11:22:21;;;;;;;8.90;7.43;;;;;;;;;;4993613;28;20419;-73
2023/02/07 11:24:47;;;;;;;10.00;7.10;;;;;;;;;;5011774;28;20204;-74
2023/02/07 11:27:17;;;;;;;9.47;7.63;;;;;;;;;;4993018;28;20897;-74
2023/02/07 11:29:45;;;;;;;10.60;8.40;;;;;;;;;;5010620;28;20612;-74
2023/02/07 11:32:12;;;;;;;17.30;8.50;;;;;;;;;;4994448;28;20408;-73
2023/02/07 11:34:50;;;;;;;15.13;8.00;;;;;;;;;;5011208;28;20439;-74
2023/02/07 11:37:24;;;;;;;24.63;9.13;;;;;;;;;;5011427;28;20424;-74
2023/02/07 11:39:51;;;;;;;10.33;8.07;;;;;;;;;;4994331;28;20430;-74
2023/02/07 11:42:18;;;;;;;12.53;8.00;;;;;;;;;;5009675;28;20431;-74
2023/02/07 11:44:44;;;;;;;9.07;6.97;;;;;;;;;;5011201;28;20804;-74
2023/02/07 11:47:15;;;;;;;9.07;7.37;;;;;;;;;;5011207;28;20439;-74
2023/02/07 11:49:42;;;;;;;8.43;7.53;;;;;;;;;;4993782;28;20404;-74
2023/02/07 11:52:07;;;;;;;10.10;6.80;;;;;;;;;;5008043;28;20446;-74
2023/02/07 11:54:33;;;;;;;8.13;6.63;;;;;;;;;;5011769;28;20835;-74
2023/02/07 11:59:27;;;;;;;11.00;7.70;;;;;;;;;;4965052;28;20518;-71
2023/02/07 12:01:54;;;;;;;9.90;7.67;;;;;;;;;;4970989;28;20477;-71
2023/02/07 12:04:23;;;;;;;9.63;7.30;;;;;;;;;;4953546;28;20186;-71
2023/02/07 12:06:54;;;;;;;8.00;6.23;;;;;;;;;;4968036;28;20481;-70
2023/02/07 12:09:38;;;;;;;9.77;8.17;;;;;;;;;;4971209;28;20448;-70
2023/02/07 12:12:06;;;;;;;7.30;6.60;;;;;;;;;;4970982;28;20445;-70
2023/02/07 12:14:38;;;;;;;9.80;7.37;;;;;;;;;;4969497;28;20432;-70
2023/02/07 12:17:08;;;;;;;7.60;6.67;;;;;;;;;;4972190;28;20440;-70
2023/02/07 12:19:35;;;;;;;9.13;6.73;;;;;;;;;;4971399;28;20498;-70
2023/02/07 12:22:03;;;;;;;6.57;5.77;;;;;;;;;;4970658;28;20517;-71
2023/02/07 12:24:48;;;;;;;8.97;6.43;;;;;;;;;;4972293;28;20422;-70
2023/02/07 12:27:14;;;;;;;8.80;6.00;;;;;;;;;;4971528;28;20532;-70
2023/02/07 12:29:40;;;;;;;10.10;7.17;;;;;;;;;;4970551;28;20496;-70
2023/02/07 12:32:15;;;;;;;7.53;6.13;;;;;;;;;;4971507;28;20516;-71
2023/02/07 12:34:40;;;;;;;8.00;6.03;;;;;;;;;;4971269;28;20205;-70
2023/02/07 12:37:26;;;;;;;11.47;7.10;;;;;;;;;;4970923;28;20887;-70
2023/02/07 12:40:12;;;;;;;8.47;6.43;;;;;;;;;;4969536;28;20183;-70
2023/02/07 12:42:39;;;;;;;8.67;6.83;;;;;;;;;;4941262;28;20429;-70
2023/02/07 12:45:05;;;;;;;8.13;6.63;;;;;;;;;;4970968;28;20913;-70
2023/02/07 12:47:43;;;;;;;8.00;6.43;;;;;;;;;;4969735;28;20486;-71
2023/02/07 12:50:27;;;;;;;6.00;5.30;;;;;;;;;;4971019;28;20414;-70
2023/02/07 12:52:55;;;;;;;8.03;5.97;;;;;;;;;;4971177;28;20973;-71
2023/02/07 12:55:23;;;;;;;6.60;5.37;;;;;;;;;;4970235;28;20531;-70
2023/02/07 12:58:03;;;;;;;7.00;5.80;;;;;;;;;;4969355;28;20457;-70
2023/02/07 13:00:48;;;;;;;8.50;6.30;;;;;;;;;;4970739;28;20413;-70
2023/02/07 13:03:24;;;;;;;6.43;5.60;;;;;;;;;;4953840;28;20895;-70
2023/02/07 13:06:01;;;;;;;8.07;6.00;;;;;;;;;;4971061;28;20405;-70
2023/02/07 13:08:38;;;;;;;8.73;6.00;;;;;;;;;;4970674;28;20440;-70
2023/02/07 13:11:14;;;;;;;6.20;5.60;;;;;;;;;;4946536;28;20910;-69
2023/02/07 13:13:53;;;;;;;8.23;5.87;;;;;;;;;;4971217;28;20405;-69
2023/02/07 13:16:39;;;;;;;7.10;6.00;;;;;;;;;;4970527;28;20472;-70
2023/02/07 13:19:17;;;;;;;8.67;6.53;;;;;;;;;;4926490;28;20481;-70
2023/02/07 13:21:47;;;;;;;8.13;5.93;;;;;;;;;;4970374;28;20405;-70
2023/02/07 13:24:14;;;;;;;7.93;5.47;;;;;;;;;;4970553;28;20414;-70
2023/02/07 13:26:41;;;;;;;8.87;7.00;;;;;;;;;;4969129;28;20735;-70
2023/02/07 13:29:12;;;;;;;6.43;5.80;;;;;;;;;;4970558;28;20438;-70
2023/02/07 13:31:39;;;;;;;5.40;4.87;;;;;;;;;;4970369;28;20421;-70
2023/02/07 13:34:10;;;;;;;8.07;6.37;;;;;;;;;;4970515;28;20926;-70
2023/02/07 13:36:39;;;;;;;9.23;6.90;;;;;;;;;;4970679;28;20539;-70
2023/02/07 13:39:23;;;;;;;7.10;5.80;;;;;;;;;;4969643;28;20533;-70
2023/02/07 13:42:07;;;;;;;8.70;6.40;;;;;;;;;;4970706;28;20494;-70
2023/02/07 13:44:32;;;;;;;6.63;6.03;;;;;;;;;;4970570;28;20406;-69
2023/02/07 13:47:04;;;;;;;8.10;6.43;;;;;;;;;;4969292;28;20424;-69
2023/02/07 13:49:38;;;;;;;9.40;6.37;;;;;;;;;;4971131;28;20257;-69
2023/02/07 13:52:04;;;;;;;7.47;6.67;;;;;;;;;;4973375;28;20496;-69
2023/02/07 13:54:29;;;;;;;9.30;6.50;;;;;;;;;;4973129;28;20506;-69
2023/02/07 13:59:41;;;;;;;6.97;6.20;;;;;;;;;;4974188;28;20205;-69
2023/02/07 14:02:20;;;;;;;9.87;6.30;;;;;;;;;;4952091;28;21051;-69
2023/02/07 14:04:50;;;;;;;6.33;5.73;;;;;;;;;;4973483;28;20406;-70
2023/02/07 14:07:22;;;;;;;7.73;6.90;;;;;;;;;;4973536;28;20834;-70
2023/02/07 14:09:48;;;;;;;7.13;6.43;;;;;;;;;;4974729;28;20425;-70
2023/02/07 14:12:23;;;;;;;7.80;6.70;;;;;;;;;;4973920;28;20417;-70
2023/02/07 14:14:49;;;;;;;8.30;7.10;;;;;;;;;;4974428;28;20770;-70
2023/02/07 14:17:35;;;;;;;8.10;6.87;;;;;;;;;;4972847;28;20441;-70
2023/02/07 14:20:01;;;;;;;9.10;8.20;;;;;;;;;;4942193;28;20434;-70
2023/02/07 14:22:26;;;;;;;8.43;7.43;;;;;;;;;;4974370;28;20484;-70
2023/02/07 14:24:57;;;;;;;8.43;6.70;;;;;;;;;;4973748;28;20418;-70
2023/02/07 14:27:32;;;;;;;8.73;6.30;;;;;;;;;;4973566;28;20691;-70
2023/02/07 14:30:12;;;;;;;8.20;6.93;;;;;;;;;;4973649;28;20409;-69
2023/02/07 14:33:02;;;;;;;11.73;8.50;;;;;;;;;;4974284;28;20492;-70
2023/02/07 14:35:29;;;;;;;9.13;7.03;;;;;;;;;;4973924;28;20504;-69
2023/02/07 14:37:59;;;;;;;7.70;6.63;;;;;;;;;;4972653;28;20448;-69
2023/02/07 14:40:30;;;;;;;8.73;7.43;;;;;;;;;;4973358;28;20437;-69
2023/02/07 14:42:58;;;;;;;8.23;6.67;;;;;;;;;;4956509;28;20452;-69